<?xml version="1.0" encoding="UTF-8" standalone="no" ?>
<gpx xmlns:xsi="http://www.w3.org/2001/XMLSchema-instance" version="1.1" xmlns:gpxtpx="http://www.garmin.com/xmlschemas/TrackPointExtension/v1" xmlns="http://www.topografix.com/GPX/1/1" xmlns:rmc="urn:net:trekbuddy:1.0:nmea:rmc" creator="QLandkarteGT 1.5.1 http://www.qlandkarte.org/" xmlns:wptx1="http://www.garmin.com/xmlschemas/WaypointExtension/v1" xsi:schemaLocation="http://www.topografix.com/GPX/1/1 http://www.topografix.com/GPX/1/1/gpx.xsd http://www.garmin.com/xmlschemas/GpxExtensions/v3 http://www.garmin.com/xmlschemas/GpxExtensionsv3.xsd http://www.garmin.com/xmlschemas/TrackPointExtension/v1 http://www.garmin.com/xmlschemas/TrackPointExtensionv1.xsd http://www.garmin.com/xmlschemas/WaypointExtension/v1 http://www.garmin.com/xmlschemas/WaypointExtensionv1.xsd http://www.qlandkarte.org/xmlschemas/v1.1 http://www.qlandkarte.org/xmlschemas/v1.1/ql-extensions.xsd" xmlns:gpxx="http://www.garmin.com/xmlschemas/GpxExtensions/v3" xmlns:ql="http://www.qlandkarte.org/xmlschemas/v1.1">
 <metadata>
  <time>2013-08-03T18:42:35Z</time>
 </metadata>
 <trk>
  <name>1_Kiefersfelden-Mayerhofen</name>
  <extensions>
   <gpxx:TrackExtension>
    <gpxx:DisplayColor>Cyan</gpxx:DisplayColor>
   </gpxx:TrackExtension>
   <ql:key>1375136973TA11</ql:key>
  </extensions>
  <trkseg>
   <trkpt lon="12.19034958" lat="47.61000061">
    <ele>483</ele>
    <time>1970-01-01T00:00:01.000Z</time>
   </trkpt>
   <trkpt lon="12.19029903" lat="47.61007309">
    <ele>483</ele>
    <time>1970-01-01T00:00:02.000Z</time>
   </trkpt>
   <trkpt lon="12.19020557" lat="47.61000824">
    <ele>483</ele>
    <time>1970-01-01T00:00:03.000Z</time>
   </trkpt>
   <trkpt lon="12.19011211" lat="47.60994339">
    <ele>483</ele>
    <time>1970-01-01T00:00:04.000Z</time>
   </trkpt>
   <trkpt lon="12.19001770" lat="47.60988235">
    <ele>483</ele>
    <time>1970-01-01T00:00:05.000Z</time>
   </trkpt>
   <trkpt lon="12.18998146" lat="47.60985565">
    <ele>483</ele>
    <time>1970-01-01T00:00:06.000Z</time>
   </trkpt>
   <trkpt lon="12.18985271" lat="47.60983276">
    <ele>483</ele>
    <time>1970-01-01T00:00:07.000Z</time>
   </trkpt>
   <trkpt lon="12.18972301" lat="47.60980988">
    <ele>483</ele>
    <time>1970-01-01T00:00:08.000Z</time>
   </trkpt>
   <trkpt lon="12.18967056" lat="47.60980225">
    <ele>483</ele>
    <time>1970-01-01T00:00:09.000Z</time>
   </trkpt>
   <trkpt lon="12.18953800" lat="47.60979462">
    <ele>483</ele>
    <time>1970-01-01T00:00:10.000Z</time>
   </trkpt>
   <trkpt lon="12.18940449" lat="47.60979080">
    <ele>483</ele>
    <time>1970-01-01T00:00:11.000Z</time>
   </trkpt>
   <trkpt lon="12.18927193" lat="47.60978317">
    <ele>483</ele>
    <time>1970-01-01T00:00:12.000Z</time>
   </trkpt>
   <trkpt lon="12.18913937" lat="47.60977554">
    <ele>483</ele>
    <time>1970-01-01T00:00:13.000Z</time>
   </trkpt>
   <trkpt lon="12.18900585" lat="47.60976791">
    <ele>483</ele>
    <time>1970-01-01T00:00:14.000Z</time>
   </trkpt>
   <trkpt lon="12.18889332" lat="47.60976410">
    <ele>483</ele>
    <time>1970-01-01T00:00:15.000Z</time>
   </trkpt>
   <trkpt lon="12.18876457" lat="47.60974121">
    <ele>483</ele>
    <time>1970-01-01T00:00:16.000Z</time>
   </trkpt>
   <trkpt lon="12.18869400" lat="47.60972977">
    <ele>485</ele>
    <time>1970-01-01T00:00:17.000Z</time>
   </trkpt>
   <trkpt lon="12.18856430" lat="47.60970688">
    <ele>485</ele>
    <time>1970-01-01T00:00:18.000Z</time>
   </trkpt>
   <trkpt lon="12.18844128" lat="47.60968781">
    <ele>485</ele>
    <time>1970-01-01T00:00:19.000Z</time>
   </trkpt>
   <trkpt lon="12.18843365" lat="47.60973358">
    <ele>485</ele>
    <time>1970-01-01T00:00:20.000Z</time>
   </trkpt>
   <trkpt lon="12.18735313" lat="47.60985947">
    <ele>486</ele>
    <time>1970-01-01T00:00:21.000Z</time>
   </trkpt>
   <trkpt lon="12.18640900" lat="47.61017609">
    <ele>488</ele>
    <time>1970-01-01T00:00:22.000Z</time>
   </trkpt>
   <trkpt lon="12.18572235" lat="47.61017609">
    <ele>489</ele>
    <time>1970-01-01T00:00:23.000Z</time>
   </trkpt>
   <trkpt lon="12.18516445" lat="47.61006165">
    <ele>491</ele>
    <time>1970-01-01T00:00:24.000Z</time>
   </trkpt>
   <trkpt lon="12.18473530" lat="47.60974121">
    <ele>491</ele>
    <time>1970-01-01T00:00:25.000Z</time>
   </trkpt>
   <trkpt lon="12.18439198" lat="47.60919189">
    <ele>493</ele>
    <time>1970-01-01T00:00:26.000Z</time>
   </trkpt>
   <trkpt lon="12.18370533" lat="47.60884476">
    <ele>502</ele>
    <time>1970-01-01T00:00:27.000Z</time>
   </trkpt>
   <trkpt lon="12.18306160" lat="47.60864258">
    <ele>494</ele>
    <time>1970-01-01T00:00:28.000Z</time>
   </trkpt>
   <trkpt lon="12.18228912" lat="47.60852814">
    <ele>509</ele>
    <time>1970-01-01T00:00:29.000Z</time>
   </trkpt>
   <trkpt lon="12.18173122" lat="47.60844040">
    <ele>528</ele>
    <time>1970-01-01T00:00:30.000Z</time>
   </trkpt>
   <trkpt lon="12.18087292" lat="47.60809326">
    <ele>547</ele>
    <time>1970-01-01T00:00:31.000Z</time>
   </trkpt>
   <trkpt lon="12.18035793" lat="47.60792160">
    <ele>561</ele>
    <time>1970-01-01T00:00:32.000Z</time>
   </trkpt>
   <trkpt lon="12.17988586" lat="47.60763168">
    <ele>551</ele>
    <time>1970-01-01T00:00:33.000Z</time>
   </trkpt>
   <trkpt lon="12.17949963" lat="47.60754395">
    <ele>567</ele>
    <time>1970-01-01T00:00:34.000Z</time>
   </trkpt>
   <trkpt lon="12.17842674" lat="47.60748672">
    <ele>575</ele>
    <time>1970-01-01T00:00:35.000Z</time>
   </trkpt>
   <trkpt lon="12.17701054" lat="47.60716629">
    <ele>563</ele>
    <time>1970-01-01T00:00:36.000Z</time>
   </trkpt>
   <trkpt lon="12.17580891" lat="47.60684967">
    <ele>591</ele>
    <time>1970-01-01T00:00:37.000Z</time>
   </trkpt>
   <trkpt lon="12.17413521" lat="47.60673523">
    <ele>581</ele>
    <time>1970-01-01T00:00:38.000Z</time>
   </trkpt>
   <trkpt lon="12.17271900" lat="47.60681915">
    <ele>583</ele>
    <time>1970-01-01T00:00:39.000Z</time>
   </trkpt>
   <trkpt lon="12.17177486" lat="47.60716629">
    <ele>558</ele>
    <time>1970-01-01T00:00:40.000Z</time>
   </trkpt>
   <trkpt lon="12.17053032" lat="47.60748672">
    <ele>558</ele>
    <time>1970-01-01T00:00:41.000Z</time>
   </trkpt>
   <trkpt lon="12.16945744" lat="47.60731125">
    <ele>544</ele>
    <time>1970-01-01T00:00:42.000Z</time>
   </trkpt>
   <trkpt lon="12.16825581" lat="47.60739899">
    <ele>544</ele>
    <time>1970-01-01T00:00:43.000Z</time>
   </trkpt>
   <trkpt lon="12.16692543" lat="47.60739899">
    <ele>544</ele>
    <time>1970-01-01T00:00:44.000Z</time>
   </trkpt>
   <trkpt lon="12.16559505" lat="47.60736847">
    <ele>549</ele>
    <time>1970-01-01T00:00:45.000Z</time>
   </trkpt>
   <trkpt lon="12.16495132" lat="47.60710907">
    <ele>555</ele>
    <time>1970-01-01T00:00:46.000Z</time>
   </trkpt>
   <trkpt lon="12.16443634" lat="47.60725403">
    <ele>560</ele>
    <time>1970-01-01T00:00:47.000Z</time>
   </trkpt>
   <trkpt lon="12.16405010" lat="47.60760117">
    <ele>560</ele>
    <time>1970-01-01T00:00:48.000Z</time>
   </trkpt>
   <trkpt lon="12.16306305" lat="47.60760117">
    <ele>556</ele>
    <time>1970-01-01T00:00:49.000Z</time>
   </trkpt>
   <trkpt lon="12.16211891" lat="47.60713959">
    <ele>549</ele>
    <time>1970-01-01T00:00:50.000Z</time>
   </trkpt>
   <trkpt lon="12.16061687" lat="47.60693741">
    <ele>603</ele>
    <time>1970-01-01T00:00:51.000Z</time>
   </trkpt>
   <trkpt lon="12.15988731" lat="47.60742950">
    <ele>561</ele>
    <time>1970-01-01T00:00:52.000Z</time>
   </trkpt>
   <trkpt lon="12.15928650" lat="47.60780334">
    <ele>571</ele>
    <time>1970-01-01T00:00:53.000Z</time>
   </trkpt>
   <trkpt lon="12.15817070" lat="47.60754395">
    <ele>581</ele>
    <time>1970-01-01T00:00:54.000Z</time>
   </trkpt>
   <trkpt lon="12.15791321" lat="47.60705185">
    <ele>592</ele>
    <time>1970-01-01T00:00:55.000Z</time>
   </trkpt>
   <trkpt lon="12.15756989" lat="47.60647202">
    <ele>592</ele>
    <time>1970-01-01T00:00:56.000Z</time>
   </trkpt>
   <trkpt lon="12.15714073" lat="47.60609818">
    <ele>609</ele>
    <time>1970-01-01T00:00:57.000Z</time>
   </trkpt>
   <trkpt lon="12.15705490" lat="47.60563278">
    <ele>609</ele>
    <time>1970-01-01T00:00:58.000Z</time>
   </trkpt>
   <trkpt lon="12.15666866" lat="47.60517120">
    <ele>618</ele>
    <time>1970-01-01T00:00:59.000Z</time>
   </trkpt>
   <trkpt lon="12.15615368" lat="47.60485458">
    <ele>614</ele>
    <time>1970-01-01T00:01:00.000Z</time>
   </trkpt>
   <trkpt lon="12.15555286" lat="47.60424423">
    <ele>623</ele>
    <time>1970-01-01T00:01:01.000Z</time>
   </trkpt>
   <trkpt lon="12.15375042" lat="47.60285568">
    <ele>650</ele>
    <time>1970-01-01T00:01:02.000Z</time>
   </trkpt>
   <trkpt lon="12.15242004" lat="47.60126495">
    <ele>645</ele>
    <time>1970-01-01T00:01:03.000Z</time>
   </trkpt>
   <trkpt lon="12.15302086" lat="47.60031128">
    <ele>643</ele>
    <time>1970-01-01T00:01:04.000Z</time>
   </trkpt>
   <trkpt lon="12.15173340" lat="47.59961700">
    <ele>649</ele>
    <time>1970-01-01T00:01:05.000Z</time>
   </trkpt>
   <trkpt lon="12.15134716" lat="47.59836960">
    <ele>657</ele>
    <time>1970-01-01T00:01:06.000Z</time>
   </trkpt>
   <trkpt lon="12.15061760" lat="47.59970093">
    <ele>662</ele>
    <time>1970-01-01T00:01:07.000Z</time>
   </trkpt>
   <trkpt lon="12.15100384" lat="47.60083008">
    <ele>670</ele>
    <time>1970-01-01T00:01:08.000Z</time>
   </trkpt>
   <trkpt lon="12.15113258" lat="47.60137939">
    <ele>689</ele>
    <time>1970-01-01T00:01:09.000Z</time>
   </trkpt>
   <trkpt lon="12.14894390" lat="47.60004807">
    <ele>691</ele>
    <time>1970-01-01T00:01:10.000Z</time>
   </trkpt>
   <trkpt lon="12.14765644" lat="47.60045624">
    <ele>697</ele>
    <time>1970-01-01T00:01:11.000Z</time>
   </trkpt>
   <trkpt lon="12.14679813" lat="47.59944153">
    <ele>699</ele>
    <time>1970-01-01T00:01:12.000Z</time>
   </trkpt>
   <trkpt lon="12.14508152" lat="47.59929657">
    <ele>692</ele>
    <time>1970-01-01T00:01:13.000Z</time>
   </trkpt>
   <trkpt lon="12.14435196" lat="47.60068512">
    <ele>668</ele>
    <time>1970-01-01T00:01:14.000Z</time>
   </trkpt>
   <trkpt lon="12.14259243" lat="47.60080338">
    <ele>678</ele>
    <time>1970-01-01T00:01:15.000Z</time>
   </trkpt>
   <trkpt lon="12.14091873" lat="47.59926987">
    <ele>674</ele>
    <time>1970-01-01T00:01:16.000Z</time>
   </trkpt>
   <trkpt lon="12.13976002" lat="47.59825516">
    <ele>668</ele>
    <time>1970-01-01T00:01:17.000Z</time>
   </trkpt>
   <trkpt lon="12.13838673" lat="47.59675217">
    <ele>660</ele>
    <time>1970-01-01T00:01:18.000Z</time>
   </trkpt>
   <trkpt lon="12.13778591" lat="47.59579468">
    <ele>648</ele>
    <time>1970-01-01T00:01:19.000Z</time>
   </trkpt>
   <trkpt lon="12.13654137" lat="47.59296036">
    <ele>653</ele>
    <time>1970-01-01T00:01:20.000Z</time>
   </trkpt>
   <trkpt lon="12.13336563" lat="47.59177399">
    <ele>669</ele>
    <time>1970-01-01T00:01:21.000Z</time>
   </trkpt>
   <trkpt lon="12.13010406" lat="47.59301758">
    <ele>656</ele>
    <time>1970-01-01T00:01:22.000Z</time>
   </trkpt>
   <trkpt lon="12.12952518" lat="47.59360123">
    <ele>650</ele>
    <time>1970-01-01T00:01:23.000Z</time>
   </trkpt>
   <trkpt lon="12.12902069" lat="47.59386444">
    <ele>659</ele>
    <time>1970-01-01T00:01:24.000Z</time>
   </trkpt>
   <trkpt lon="12.12763596" lat="47.59383392">
    <ele>658</ele>
    <time>1970-01-01T00:01:25.000Z</time>
   </trkpt>
   <trkpt lon="12.12642384" lat="47.59350204">
    <ele>644</ele>
    <time>1970-01-01T00:01:26.000Z</time>
   </trkpt>
   <trkpt lon="12.12375259" lat="47.59405899">
    <ele>639</ele>
    <time>1970-01-01T00:01:27.000Z</time>
   </trkpt>
   <trkpt lon="12.12164974" lat="47.59382629">
    <ele>635</ele>
    <time>1970-01-01T00:01:28.000Z</time>
   </trkpt>
   <trkpt lon="12.11920357" lat="47.59417343">
    <ele>625</ele>
    <time>1970-01-01T00:01:29.000Z</time>
   </trkpt>
   <trkpt lon="12.11792660" lat="47.59424591">
    <ele>621</ele>
    <time>1970-01-01T00:01:30.000Z</time>
   </trkpt>
   <trkpt lon="12.11794853" lat="47.59370422">
    <ele>620</ele>
    <time>1970-01-01T00:01:31.000Z</time>
   </trkpt>
   <trkpt lon="12.11766911" lat="47.59318161">
    <ele>624</ele>
    <time>1970-01-01T00:01:32.000Z</time>
   </trkpt>
   <trkpt lon="12.11695004" lat="47.59276199">
    <ele>626</ele>
    <time>1970-01-01T00:01:33.000Z</time>
   </trkpt>
   <trkpt lon="12.11471844" lat="47.59217072">
    <ele>647</ele>
    <time>1970-01-01T00:01:34.000Z</time>
   </trkpt>
   <trkpt lon="12.11470795" lat="47.59215546">
    <ele>647</ele>
    <time>1970-01-01T00:01:35.000Z</time>
   </trkpt>
   <trkpt lon="12.11383915" lat="47.59188843">
    <ele>637</ele>
    <time>1970-01-01T00:01:36.000Z</time>
   </trkpt>
   <trkpt lon="12.11169338" lat="47.59171295">
    <ele>662</ele>
    <time>1970-01-01T00:01:37.000Z</time>
   </trkpt>
   <trkpt lon="12.10920429" lat="47.59154129">
    <ele>687</ele>
    <time>1970-01-01T00:01:38.000Z</time>
   </trkpt>
   <trkpt lon="12.10620022" lat="47.59078979">
    <ele>721</ele>
    <time>1970-01-01T00:01:39.000Z</time>
   </trkpt>
   <trkpt lon="12.10311031" lat="47.59020996">
    <ele>738</ele>
    <time>1970-01-01T00:01:40.000Z</time>
   </trkpt>
   <trkpt lon="12.10139370" lat="47.58986282">
    <ele>757</ele>
    <time>1970-01-01T00:01:41.000Z</time>
   </trkpt>
   <trkpt lon="12.09821796" lat="47.58934021">
    <ele>778</ele>
    <time>1970-01-01T00:01:42.000Z</time>
   </trkpt>
   <trkpt lon="12.09092236" lat="47.58835602">
    <ele>798</ele>
    <time>1970-01-01T00:01:43.000Z</time>
   </trkpt>
   <trkpt lon="12.08929157" lat="47.58685303">
    <ele>793</ele>
    <time>1970-01-01T00:01:44.000Z</time>
   </trkpt>
   <trkpt lon="12.08817577" lat="47.58476639">
    <ele>794</ele>
    <time>1970-01-01T00:01:45.000Z</time>
   </trkpt>
   <trkpt lon="12.08585835" lat="47.58343506">
    <ele>802</ele>
    <time>1970-01-01T00:01:46.000Z</time>
   </trkpt>
   <trkpt lon="12.08371258" lat="47.58291626">
    <ele>813</ele>
    <time>1970-01-01T00:01:47.000Z</time>
   </trkpt>
   <trkpt lon="12.08096600" lat="47.58187485">
    <ele>798</ele>
    <time>1970-01-01T00:01:48.000Z</time>
   </trkpt>
   <trkpt lon="12.07967854" lat="47.58025360">
    <ele>806</ele>
    <time>1970-01-01T00:01:49.000Z</time>
   </trkpt>
   <trkpt lon="12.07882023" lat="47.58100510">
    <ele>797</ele>
    <time>1970-01-01T00:01:50.000Z</time>
   </trkpt>
   <trkpt lon="12.07624531" lat="47.58181381">
    <ele>815</ele>
    <time>1970-01-01T00:01:51.000Z</time>
   </trkpt>
   <trkpt lon="12.07152462" lat="47.58303070">
    <ele>825</ele>
    <time>1970-01-01T00:01:52.000Z</time>
   </trkpt>
   <trkpt lon="12.06955051" lat="47.58355331">
    <ele>844</ele>
    <time>1970-01-01T00:01:53.000Z</time>
   </trkpt>
   <trkpt lon="12.06646061" lat="47.58378220">
    <ele>856</ele>
    <time>1970-01-01T00:01:54.000Z</time>
   </trkpt>
   <trkpt lon="12.06448650" lat="47.58407211">
    <ele>860</ele>
    <time>1970-01-01T00:01:55.000Z</time>
   </trkpt>
   <trkpt lon="12.06096745" lat="47.58424759">
    <ele>848</ele>
    <time>1970-01-01T00:01:56.000Z</time>
   </trkpt>
   <trkpt lon="12.05787754" lat="47.58419037">
    <ele>832</ele>
    <time>1970-01-01T00:01:57.000Z</time>
   </trkpt>
   <trkpt lon="12.05693340" lat="47.58227921">
    <ele>833</ele>
    <time>1970-01-01T00:01:58.000Z</time>
   </trkpt>
   <trkpt lon="12.05556011" lat="47.58094788">
    <ele>848</ele>
    <time>1970-01-01T00:01:59.000Z</time>
   </trkpt>
   <trkpt lon="12.05461597" lat="47.57955551">
    <ele>908</ele>
    <time>1970-01-01T00:02:00.000Z</time>
   </trkpt>
   <trkpt lon="12.05195522" lat="47.57834244">
    <ele>890</ele>
    <time>1970-01-01T00:02:01.000Z</time>
   </trkpt>
   <trkpt lon="12.05058193" lat="47.57741547">
    <ele>912</ele>
    <time>1970-01-01T00:02:02.000Z</time>
   </trkpt>
   <trkpt lon="12.04938030" lat="47.57695007">
    <ele>903</ele>
    <time>1970-01-01T00:02:03.000Z</time>
   </trkpt>
   <trkpt lon="12.04783535" lat="47.57573700">
    <ele>893</ele>
    <time>1970-01-01T00:02:04.000Z</time>
   </trkpt>
   <trkpt lon="12.04732037" lat="47.57550430">
    <ele>893</ele>
    <time>1970-01-01T00:02:05.000Z</time>
   </trkpt>
   <trkpt lon="12.04955196" lat="47.57532883">
    <ele>929</ele>
    <time>1970-01-01T00:02:06.000Z</time>
   </trkpt>
   <trkpt lon="12.04800701" lat="47.57417297">
    <ele>930</ele>
    <time>1970-01-01T00:02:07.000Z</time>
   </trkpt>
   <trkpt lon="12.04663372" lat="47.57307053">
    <ele>911</ele>
    <time>1970-01-01T00:02:08.000Z</time>
   </trkpt>
   <trkpt lon="12.04603291" lat="47.57208633">
    <ele>916</ele>
    <time>1970-01-01T00:02:09.000Z</time>
   </trkpt>
   <trkpt lon="12.04448795" lat="47.57116318">
    <ele>935</ele>
    <time>1970-01-01T00:02:10.000Z</time>
   </trkpt>
   <trkpt lon="12.04354382" lat="47.57058334">
    <ele>903</ele>
    <time>1970-01-01T00:02:11.000Z</time>
   </trkpt>
   <trkpt lon="12.04191303" lat="47.56965637">
    <ele>900</ele>
    <time>1970-01-01T00:02:12.000Z</time>
   </trkpt>
   <trkpt lon="12.04122639" lat="47.56901932">
    <ele>917</ele>
    <time>1970-01-01T00:02:13.000Z</time>
   </trkpt>
   <trkpt lon="12.04096889" lat="47.56820679">
    <ele>941</ele>
    <time>1970-01-01T00:02:14.000Z</time>
   </trkpt>
   <trkpt lon="12.04148388" lat="47.56681824">
    <ele>919</ele>
    <time>1970-01-01T00:02:15.000Z</time>
   </trkpt>
   <trkpt lon="12.04242802" lat="47.56658554">
    <ele>957</ele>
    <time>1970-01-01T00:02:16.000Z</time>
   </trkpt>
   <trkpt lon="12.04405880" lat="47.56664276">
    <ele>974</ele>
    <time>1970-01-01T00:02:17.000Z</time>
   </trkpt>
   <trkpt lon="12.04474545" lat="47.56670380">
    <ele>971</ele>
    <time>1970-01-01T00:02:18.000Z</time>
   </trkpt>
   <trkpt lon="12.04586124" lat="47.56670380">
    <ele>984</ele>
    <time>1970-01-01T00:02:19.000Z</time>
   </trkpt>
   <trkpt lon="12.04586124" lat="47.56618118">
    <ele>976</ele>
    <time>1970-01-01T00:02:20.000Z</time>
   </trkpt>
   <trkpt lon="12.04603291" lat="47.56554413">
    <ele>976</ele>
    <time>1970-01-01T00:02:21.000Z</time>
   </trkpt>
   <trkpt lon="12.04586124" lat="47.56519699">
    <ele>985</ele>
    <time>1970-01-01T00:02:22.000Z</time>
   </trkpt>
   <trkpt lon="12.04483128" lat="47.56513977">
    <ele>974</ele>
    <time>1970-01-01T00:02:23.000Z</time>
   </trkpt>
   <trkpt lon="12.04362965" lat="47.56496429">
    <ele>949</ele>
    <time>1970-01-01T00:02:24.000Z</time>
   </trkpt>
   <trkpt lon="12.04234219" lat="47.56450272">
    <ele>961</ele>
    <time>1970-01-01T00:02:25.000Z</time>
   </trkpt>
   <trkpt lon="12.04208469" lat="47.56438446">
    <ele>961</ele>
    <time>1970-01-01T00:02:26.000Z</time>
   </trkpt>
   <trkpt lon="12.04096889" lat="47.56386566">
    <ele>948</ele>
    <time>1970-01-01T00:02:27.000Z</time>
   </trkpt>
   <trkpt lon="12.04088306" lat="47.56276321">
    <ele>956</ele>
    <time>1970-01-01T00:02:28.000Z</time>
   </trkpt>
   <trkpt lon="12.04053974" lat="47.56160736">
    <ele>956</ele>
    <time>1970-01-01T00:02:29.000Z</time>
   </trkpt>
   <trkpt lon="12.04045391" lat="47.56039047">
    <ele>964</ele>
    <time>1970-01-01T00:02:30.000Z</time>
   </trkpt>
   <trkpt lon="12.04105473" lat="47.55969620">
    <ele>964</ele>
    <time>1970-01-01T00:02:31.000Z</time>
   </trkpt>
   <trkpt lon="12.03959560" lat="47.55957794">
    <ele>982</ele>
    <time>1970-01-01T00:02:32.000Z</time>
   </trkpt>
   <trkpt lon="12.03882313" lat="47.55992508">
    <ele>955</ele>
    <time>1970-01-01T00:02:33.000Z</time>
   </trkpt>
   <trkpt lon="12.03676319" lat="47.55934525">
    <ele>975</ele>
    <time>1970-01-01T00:02:34.000Z</time>
   </trkpt>
   <trkpt lon="12.03496075" lat="47.55876923">
    <ele>943</ele>
    <time>1970-01-01T00:02:35.000Z</time>
   </trkpt>
   <trkpt lon="12.03324413" lat="47.55818939">
    <ele>957</ele>
    <time>1970-01-01T00:02:36.000Z</time>
   </trkpt>
   <trkpt lon="12.03221416" lat="47.55778122">
    <ele>983</ele>
    <time>1970-01-01T00:02:37.000Z</time>
   </trkpt>
   <trkpt lon="12.03032589" lat="47.55720520">
    <ele>951</ele>
    <time>1970-01-01T00:02:38.000Z</time>
   </trkpt>
   <trkpt lon="12.02835178" lat="47.55691528">
    <ele>970</ele>
    <time>1970-01-01T00:02:39.000Z</time>
   </trkpt>
   <trkpt lon="12.02663517" lat="47.55639267">
    <ele>953</ele>
    <time>1970-01-01T00:02:40.000Z</time>
   </trkpt>
   <trkpt lon="12.02448940" lat="47.55604553">
    <ele>964</ele>
    <time>1970-01-01T00:02:41.000Z</time>
   </trkpt>
   <trkpt lon="12.02260113" lat="47.55587006">
    <ele>965</ele>
    <time>1970-01-01T00:02:42.000Z</time>
   </trkpt>
   <trkpt lon="12.02097034" lat="47.55564117">
    <ele>930</ele>
    <time>1970-01-01T00:02:43.000Z</time>
   </trkpt>
   <trkpt lon="12.01959705" lat="47.55448151">
    <ele>975</ele>
    <time>1970-01-01T00:02:44.000Z</time>
   </trkpt>
   <trkpt lon="12.01848125" lat="47.55401611">
    <ele>941</ele>
    <time>1970-01-01T00:02:45.000Z</time>
   </trkpt>
   <trkpt lon="12.01659298" lat="47.55274200">
    <ele>970</ele>
    <time>1970-01-01T00:02:46.000Z</time>
   </trkpt>
   <trkpt lon="12.01556301" lat="47.55251312">
    <ele>965</ele>
    <time>1970-01-01T00:02:47.000Z</time>
   </trkpt>
   <trkpt lon="12.01453304" lat="47.55123901">
    <ele>973</ele>
    <time>1970-01-01T00:02:48.000Z</time>
   </trkpt>
   <trkpt lon="12.01324558" lat="47.55054092">
    <ele>963</ele>
    <time>1970-01-01T00:02:49.000Z</time>
   </trkpt>
   <trkpt lon="12.01144314" lat="47.54920959">
    <ele>971</ele>
    <time>1970-01-01T00:02:50.000Z</time>
   </trkpt>
   <trkpt lon="12.01049900" lat="47.54886246">
    <ele>956</ele>
    <time>1970-01-01T00:02:51.000Z</time>
   </trkpt>
   <trkpt lon="12.00921154" lat="47.54920959">
    <ele>958</ele>
    <time>1970-01-01T00:02:52.000Z</time>
   </trkpt>
   <trkpt lon="12.00749493" lat="47.54880524">
    <ele>963</ele>
    <time>1970-01-01T00:02:53.000Z</time>
   </trkpt>
   <trkpt lon="12.00758076" lat="47.54770279">
    <ele>980</ele>
    <time>1970-01-01T00:02:54.000Z</time>
   </trkpt>
   <trkpt lon="12.00672245" lat="47.54753113">
    <ele>977</ele>
    <time>1970-01-01T00:02:55.000Z</time>
   </trkpt>
   <trkpt lon="12.00251675" lat="47.54613876">
    <ele>998</ele>
    <time>1970-01-01T00:02:56.000Z</time>
   </trkpt>
   <trkpt lon="11.99994183" lat="47.54602432">
    <ele>968</ele>
    <time>1970-01-01T00:02:57.000Z</time>
   </trkpt>
   <trkpt lon="11.99771023" lat="47.54544449">
    <ele>922</ele>
    <time>1970-01-01T00:02:58.000Z</time>
   </trkpt>
   <trkpt lon="11.99599361" lat="47.54515457">
    <ele>929</ele>
    <time>1970-01-01T00:02:59.000Z</time>
   </trkpt>
   <trkpt lon="11.99290371" lat="47.54468918">
    <ele>908</ele>
    <time>1970-01-01T00:03:00.000Z</time>
   </trkpt>
   <trkpt lon="11.99187374" lat="47.54504013">
    <ele>911</ele>
    <time>1970-01-01T00:03:01.000Z</time>
   </trkpt>
   <trkpt lon="11.98414898" lat="47.54353333">
    <ele>938</ele>
    <time>1970-01-01T00:03:02.000Z</time>
   </trkpt>
   <trkpt lon="11.98011494" lat="47.54318619">
    <ele>924</ele>
    <time>1970-01-01T00:03:03.000Z</time>
   </trkpt>
   <trkpt lon="11.97805500" lat="47.54359055">
    <ele>926</ele>
    <time>1970-01-01T00:03:04.000Z</time>
   </trkpt>
   <trkpt lon="11.97419262" lat="47.54266357">
    <ele>916</ele>
    <time>1970-01-01T00:03:05.000Z</time>
   </trkpt>
   <trkpt lon="11.97015858" lat="47.54214096">
    <ele>912</ele>
    <time>1970-01-01T00:03:06.000Z</time>
   </trkpt>
   <trkpt lon="11.96440792" lat="47.53999710">
    <ele>888</ele>
    <time>1970-01-01T00:03:07.000Z</time>
   </trkpt>
   <trkpt lon="11.96088886" lat="47.53854752">
    <ele>876</ele>
    <time>1970-01-01T00:03:08.000Z</time>
   </trkpt>
   <trkpt lon="11.95462322" lat="47.53669357">
    <ele>847</ele>
    <time>1970-01-01T00:03:09.000Z</time>
   </trkpt>
   <trkpt lon="11.95118999" lat="47.53646469">
    <ele>825</ele>
    <time>1970-01-01T00:03:10.000Z</time>
   </trkpt>
   <trkpt lon="11.94749928" lat="47.53663635">
    <ele>817</ele>
    <time>1970-01-01T00:03:11.000Z</time>
   </trkpt>
   <trkpt lon="11.94295025" lat="47.53698349">
    <ele>801</ele>
    <time>1970-01-01T00:03:12.000Z</time>
   </trkpt>
   <trkpt lon="11.93865871" lat="47.53681183">
    <ele>775</ele>
    <time>1970-01-01T00:03:13.000Z</time>
   </trkpt>
   <trkpt lon="11.93522549" lat="47.53623199">
    <ele>758</ele>
    <time>1970-01-01T00:03:14.000Z</time>
   </trkpt>
   <trkpt lon="11.93050480" lat="47.53565216">
    <ele>752</ele>
    <time>1970-01-01T00:03:15.000Z</time>
   </trkpt>
   <trkpt lon="11.92475414" lat="47.53559494">
    <ele>730</ele>
    <time>1970-01-01T00:03:16.000Z</time>
   </trkpt>
   <trkpt lon="11.92217922" lat="47.53541946">
    <ele>731</ele>
    <time>1970-01-01T00:03:17.000Z</time>
   </trkpt>
   <trkpt lon="11.92097759" lat="47.53559494">
    <ele>737</ele>
    <time>1970-01-01T00:03:18.000Z</time>
   </trkpt>
   <trkpt lon="11.92003345" lat="47.53524780">
    <ele>723</ele>
    <time>1970-01-01T00:03:19.000Z</time>
   </trkpt>
   <trkpt lon="11.92003345" lat="47.53461075">
    <ele>723</ele>
    <time>1970-01-01T00:03:20.000Z</time>
   </trkpt>
   <trkpt lon="11.91866016" lat="47.53403091">
    <ele>721</ele>
    <time>1970-01-01T00:03:21.000Z</time>
   </trkpt>
   <trkpt lon="11.91634274" lat="47.53374100">
    <ele>740</ele>
    <time>1970-01-01T00:03:22.000Z</time>
   </trkpt>
   <trkpt lon="11.91436863" lat="47.53379822">
    <ele>701</ele>
    <time>1970-01-01T00:03:23.000Z</time>
   </trkpt>
   <trkpt lon="11.91290951" lat="47.53345108">
    <ele>732</ele>
    <time>1970-01-01T00:03:24.000Z</time>
   </trkpt>
   <trkpt lon="11.91153622" lat="47.53333282">
    <ele>722</ele>
    <time>1970-01-01T00:03:25.000Z</time>
   </trkpt>
   <trkpt lon="11.91007710" lat="47.53316116">
    <ele>705</ele>
    <time>1970-01-01T00:03:26.000Z</time>
   </trkpt>
   <trkpt lon="11.90964794" lat="47.53269577">
    <ele>742</ele>
    <time>1970-01-01T00:03:27.000Z</time>
   </trkpt>
   <trkpt lon="11.90913296" lat="47.53246307">
    <ele>722</ele>
    <time>1970-01-01T00:03:28.000Z</time>
   </trkpt>
   <trkpt lon="11.90750217" lat="47.53194427">
    <ele>732</ele>
    <time>1970-01-01T00:03:29.000Z</time>
   </trkpt>
   <trkpt lon="11.90647221" lat="47.53194427">
    <ele>728</ele>
    <time>1970-01-01T00:03:30.000Z</time>
   </trkpt>
   <trkpt lon="11.90518475" lat="47.53142166">
    <ele>688</ele>
    <time>1970-01-01T00:03:31.000Z</time>
   </trkpt>
   <trkpt lon="11.90432644" lat="47.53095627">
    <ele>699</ele>
    <time>1970-01-01T00:03:32.000Z</time>
   </trkpt>
   <trkpt lon="11.90295315" lat="47.53009033">
    <ele>716</ele>
    <time>1970-01-01T00:03:33.000Z</time>
   </trkpt>
   <trkpt lon="11.90200901" lat="47.52973938">
    <ele>689</ele>
    <time>1970-01-01T00:03:34.000Z</time>
   </trkpt>
   <trkpt lon="11.90106487" lat="47.52916336">
    <ele>696</ele>
    <time>1970-01-01T00:03:35.000Z</time>
   </trkpt>
   <trkpt lon="11.89960575" lat="47.52817535">
    <ele>707</ele>
    <time>1970-01-01T00:03:36.000Z</time>
   </trkpt>
   <trkpt lon="11.89917660" lat="47.52771378">
    <ele>712</ele>
    <time>1970-01-01T00:03:37.000Z</time>
   </trkpt>
   <trkpt lon="11.89874744" lat="47.52707672">
    <ele>702</ele>
    <time>1970-01-01T00:03:38.000Z</time>
   </trkpt>
   <trkpt lon="11.89806080" lat="47.52562714">
    <ele>711</ele>
    <time>1970-01-01T00:03:39.000Z</time>
   </trkpt>
   <trkpt lon="11.89848995" lat="47.52452469">
    <ele>728</ele>
    <time>1970-01-01T00:03:40.000Z</time>
   </trkpt>
   <trkpt lon="11.89831829" lat="47.52394485">
    <ele>728</ele>
    <time>1970-01-01T00:03:41.000Z</time>
   </trkpt>
   <trkpt lon="11.89763165" lat="47.52348328">
    <ele>720</ele>
    <time>1970-01-01T00:03:42.000Z</time>
   </trkpt>
   <trkpt lon="11.89745998" lat="47.52296066">
    <ele>720</ele>
    <time>1970-01-01T00:03:43.000Z</time>
   </trkpt>
   <trkpt lon="11.89771748" lat="47.52168655">
    <ele>691</ele>
    <time>1970-01-01T00:03:44.000Z</time>
   </trkpt>
   <trkpt lon="11.89788914" lat="47.52116394">
    <ele>690</ele>
    <time>1970-01-01T00:03:45.000Z</time>
   </trkpt>
   <trkpt lon="11.89711666" lat="47.52174377">
    <ele>691</ele>
    <time>1970-01-01T00:03:46.000Z</time>
   </trkpt>
   <trkpt lon="11.89600086" lat="47.52116394">
    <ele>674</ele>
    <time>1970-01-01T00:03:47.000Z</time>
   </trkpt>
   <trkpt lon="11.89531422" lat="47.52040863">
    <ele>688</ele>
    <time>1970-01-01T00:03:48.000Z</time>
   </trkpt>
   <trkpt lon="11.89505672" lat="47.51953888">
    <ele>704</ele>
    <time>1970-01-01T00:03:49.000Z</time>
   </trkpt>
   <trkpt lon="11.89582920" lat="47.51797485">
    <ele>691</ele>
    <time>1970-01-01T00:03:50.000Z</time>
   </trkpt>
   <trkpt lon="11.89643002" lat="47.51693344">
    <ele>686</ele>
    <time>1970-01-01T00:03:51.000Z</time>
   </trkpt>
   <trkpt lon="11.89660168" lat="47.51612091">
    <ele>694</ele>
    <time>1970-01-01T00:03:52.000Z</time>
   </trkpt>
   <trkpt lon="11.89625835" lat="47.51501846">
    <ele>691</ele>
    <time>1970-01-01T00:03:53.000Z</time>
   </trkpt>
   <trkpt lon="11.89522839" lat="47.51443863">
    <ele>707</ele>
    <time>1970-01-01T00:03:54.000Z</time>
   </trkpt>
   <trkpt lon="11.89505672" lat="47.51298904">
    <ele>701</ele>
    <time>1970-01-01T00:03:55.000Z</time>
   </trkpt>
   <trkpt lon="11.89608669" lat="47.51206207">
    <ele>736</ele>
    <time>1970-01-01T00:03:56.000Z</time>
   </trkpt>
   <trkpt lon="11.89625835" lat="47.51119232">
    <ele>713</ele>
    <time>1970-01-01T00:03:57.000Z</time>
   </trkpt>
   <trkpt lon="11.89634418" lat="47.51015091">
    <ele>710</ele>
    <time>1970-01-01T00:03:58.000Z</time>
   </trkpt>
   <trkpt lon="11.89634418" lat="47.50951004">
    <ele>701</ele>
    <time>1970-01-01T00:03:59.000Z</time>
   </trkpt>
   <trkpt lon="11.89582920" lat="47.50881577">
    <ele>737</ele>
    <time>1970-01-01T00:04:00.000Z</time>
   </trkpt>
   <trkpt lon="11.89548588" lat="47.50771332">
    <ele>704</ele>
    <time>1970-01-01T00:04:01.000Z</time>
   </trkpt>
   <trkpt lon="11.89548588" lat="47.50701904">
    <ele>693</ele>
    <time>1970-01-01T00:04:02.000Z</time>
   </trkpt>
   <trkpt lon="11.89540005" lat="47.50603104">
    <ele>719</ele>
    <time>1970-01-01T00:04:03.000Z</time>
   </trkpt>
   <trkpt lon="11.89565754" lat="47.50551224">
    <ele>699</ele>
    <time>1970-01-01T00:04:04.000Z</time>
   </trkpt>
   <trkpt lon="11.89574337" lat="47.50435257">
    <ele>690</ele>
    <time>1970-01-01T00:04:05.000Z</time>
   </trkpt>
   <trkpt lon="11.89462757" lat="47.50330734">
    <ele>691</ele>
    <time>1970-01-01T00:04:06.000Z</time>
   </trkpt>
   <trkpt lon="11.89368343" lat="47.50336456">
    <ele>715</ele>
    <time>1970-01-01T00:04:07.000Z</time>
   </trkpt>
   <trkpt lon="11.89273930" lat="47.50348282">
    <ele>732</ele>
    <time>1970-01-01T00:04:08.000Z</time>
   </trkpt>
   <trkpt lon="11.89179516" lat="47.50365448">
    <ele>749</ele>
    <time>1970-01-01T00:04:09.000Z</time>
   </trkpt>
   <trkpt lon="11.89265347" lat="47.50249481">
    <ele>738</ele>
    <time>1970-01-01T00:04:10.000Z</time>
   </trkpt>
   <trkpt lon="11.89265347" lat="47.50191498">
    <ele>739</ele>
    <time>1970-01-01T00:04:11.000Z</time>
   </trkpt>
   <trkpt lon="11.89222431" lat="47.50145340">
    <ele>739</ele>
    <time>1970-01-01T00:04:12.000Z</time>
   </trkpt>
   <trkpt lon="11.89145184" lat="47.50069809">
    <ele>760</ele>
    <time>1970-01-01T00:04:13.000Z</time>
   </trkpt>
   <trkpt lon="11.89050770" lat="47.50058365">
    <ele>771</ele>
    <time>1970-01-01T00:04:14.000Z</time>
   </trkpt>
   <trkpt lon="11.88956356" lat="47.50127792">
    <ele>794</ele>
    <time>1970-01-01T00:04:15.000Z</time>
   </trkpt>
   <trkpt lon="11.88853359" lat="47.50151062">
    <ele>789</ele>
    <time>1970-01-01T00:04:16.000Z</time>
   </trkpt>
   <trkpt lon="11.88724613" lat="47.50098801">
    <ele>779</ele>
    <time>1970-01-01T00:04:17.000Z</time>
   </trkpt>
   <trkpt lon="11.88638783" lat="47.50052261">
    <ele>791</ele>
    <time>1970-01-01T00:04:18.000Z</time>
   </trkpt>
   <trkpt lon="11.88492870" lat="47.50081253">
    <ele>772</ele>
    <time>1970-01-01T00:04:19.000Z</time>
   </trkpt>
   <trkpt lon="11.88441372" lat="47.49994278">
    <ele>764</ele>
    <time>1970-01-01T00:04:20.000Z</time>
   </trkpt>
   <trkpt lon="11.88449955" lat="47.49884415">
    <ele>761</ele>
    <time>1970-01-01T00:04:21.000Z</time>
   </trkpt>
   <trkpt lon="11.88415623" lat="47.49849319">
    <ele>723</ele>
    <time>1970-01-01T00:04:22.000Z</time>
   </trkpt>
   <trkpt lon="11.88312626" lat="47.49774170">
    <ele>728</ele>
    <time>1970-01-01T00:04:23.000Z</time>
   </trkpt>
   <trkpt lon="11.88252544" lat="47.49739456">
    <ele>735</ele>
    <time>1970-01-01T00:04:24.000Z</time>
   </trkpt>
   <trkpt lon="11.88149548" lat="47.49681473">
    <ele>701</ele>
    <time>1970-01-01T00:04:25.000Z</time>
   </trkpt>
   <trkpt lon="11.88080883" lat="47.49623489">
    <ele>681</ele>
    <time>1970-01-01T00:04:26.000Z</time>
   </trkpt>
   <trkpt lon="11.88037968" lat="47.49565506">
    <ele>725</ele>
    <time>1970-01-01T00:04:27.000Z</time>
   </trkpt>
   <trkpt lon="11.87943554" lat="47.49484253">
    <ele>713</ele>
    <time>1970-01-01T00:04:28.000Z</time>
   </trkpt>
   <trkpt lon="11.87892056" lat="47.49617386">
    <ele>749</ele>
    <time>1970-01-01T00:04:29.000Z</time>
   </trkpt>
   <trkpt lon="11.87814808" lat="47.49669647">
    <ele>735</ele>
    <time>1970-01-01T00:04:30.000Z</time>
   </trkpt>
   <trkpt lon="11.87703228" lat="47.49640656">
    <ele>745</ele>
    <time>1970-01-01T00:04:31.000Z</time>
   </trkpt>
   <trkpt lon="11.87668896" lat="47.49547958">
    <ele>739</ele>
    <time>1970-01-01T00:04:32.000Z</time>
   </trkpt>
   <trkpt lon="11.87608814" lat="47.49478531">
    <ele>745</ele>
    <time>1970-01-01T00:04:33.000Z</time>
   </trkpt>
   <trkpt lon="11.87557316" lat="47.49460983">
    <ele>745</ele>
    <time>1970-01-01T00:04:34.000Z</time>
   </trkpt>
   <trkpt lon="11.87437153" lat="47.49408722">
    <ele>746</ele>
    <time>1970-01-01T00:04:35.000Z</time>
   </trkpt>
   <trkpt lon="11.87334156" lat="47.49316025">
    <ele>731</ele>
    <time>1970-01-01T00:04:36.000Z</time>
   </trkpt>
   <trkpt lon="11.87299824" lat="47.49281311">
    <ele>698</ele>
    <time>1970-01-01T00:04:37.000Z</time>
   </trkpt>
   <trkpt lon="11.87231159" lat="47.49246216">
    <ele>713</ele>
    <time>1970-01-01T00:04:38.000Z</time>
   </trkpt>
   <trkpt lon="11.87162495" lat="47.49205780">
    <ele>690</ele>
    <time>1970-01-01T00:04:39.000Z</time>
   </trkpt>
   <trkpt lon="11.87110996" lat="47.49136353">
    <ele>710</ele>
    <time>1970-01-01T00:04:40.000Z</time>
   </trkpt>
   <trkpt lon="11.86853504" lat="47.48712921">
    <ele>698</ele>
    <time>1970-01-01T00:04:41.000Z</time>
   </trkpt>
   <trkpt lon="11.86681843" lat="47.48416901">
    <ele>624</ele>
    <time>1970-01-01T00:04:42.000Z</time>
   </trkpt>
   <trkpt lon="11.86510181" lat="47.48132706">
    <ele>611</ele>
    <time>1970-01-01T00:04:43.000Z</time>
   </trkpt>
   <trkpt lon="11.86681843" lat="47.47732544">
    <ele>589</ele>
    <time>1970-01-01T00:04:44.000Z</time>
   </trkpt>
   <trkpt lon="11.86707592" lat="47.47390366">
    <ele>584</ele>
    <time>1970-01-01T00:04:45.000Z</time>
   </trkpt>
   <trkpt lon="11.86690426" lat="47.47123337">
    <ele>609</ele>
    <time>1970-01-01T00:04:46.000Z</time>
   </trkpt>
   <trkpt lon="11.86870670" lat="47.47007370">
    <ele>596</ele>
    <time>1970-01-01T00:04:47.000Z</time>
   </trkpt>
   <trkpt lon="11.86853504" lat="47.46827316">
    <ele>581</ele>
    <time>1970-01-01T00:04:48.000Z</time>
   </trkpt>
   <trkpt lon="11.86690426" lat="47.46531677">
    <ele>573</ele>
    <time>1970-01-01T00:04:49.000Z</time>
   </trkpt>
   <trkpt lon="11.86570263" lat="47.46136856">
    <ele>567</ele>
    <time>1970-01-01T00:04:50.000Z</time>
   </trkpt>
   <trkpt lon="11.86707592" lat="47.45904922">
    <ele>558</ele>
    <time>1970-01-01T00:04:51.000Z</time>
   </trkpt>
   <trkpt lon="11.86544514" lat="47.45713425">
    <ele>546</ele>
    <time>1970-01-01T00:04:52.000Z</time>
   </trkpt>
   <trkpt lon="11.86450100" lat="47.45446396">
    <ele>578</ele>
    <time>1970-01-01T00:04:53.000Z</time>
   </trkpt>
   <trkpt lon="11.86638927" lat="47.45069122">
    <ele>534</ele>
    <time>1970-01-01T00:04:54.000Z</time>
   </trkpt>
   <trkpt lon="11.86930752" lat="47.44929886">
    <ele>545</ele>
    <time>1970-01-01T00:04:55.000Z</time>
   </trkpt>
   <trkpt lon="11.87076664" lat="47.44784546">
    <ele>543</ele>
    <time>1970-01-01T00:04:56.000Z</time>
   </trkpt>
   <trkpt lon="11.87205410" lat="47.44732285">
    <ele>531</ele>
    <time>1970-01-01T00:04:57.000Z</time>
   </trkpt>
   <trkpt lon="11.87351322" lat="47.44767380">
    <ele>525</ele>
    <time>1970-01-01T00:04:58.000Z</time>
   </trkpt>
   <trkpt lon="11.87522984" lat="47.44622040">
    <ele>522</ele>
    <time>1970-01-01T00:04:59.000Z</time>
   </trkpt>
   <trkpt lon="11.87600231" lat="47.44401550">
    <ele>529</ele>
    <time>1970-01-01T00:05:00.000Z</time>
   </trkpt>
   <trkpt lon="11.87754726" lat="47.44279861">
    <ele>518</ele>
    <time>1970-01-01T00:05:01.000Z</time>
   </trkpt>
   <trkpt lon="11.87651730" lat="47.44221497">
    <ele>519</ele>
    <time>1970-01-01T00:05:02.000Z</time>
   </trkpt>
   <trkpt lon="11.87892056" lat="47.44058990">
    <ele>521</ele>
    <time>1970-01-01T00:05:03.000Z</time>
   </trkpt>
   <trkpt lon="11.88055134" lat="47.43937302">
    <ele>517</ele>
    <time>1970-01-01T00:05:04.000Z</time>
   </trkpt>
   <trkpt lon="11.88158131" lat="47.43844223">
    <ele>515</ele>
    <time>1970-01-01T00:05:05.000Z</time>
   </trkpt>
   <trkpt lon="11.87969303" lat="47.43820953">
    <ele>515</ele>
    <time>1970-01-01T00:05:06.000Z</time>
   </trkpt>
   <trkpt lon="11.87737560" lat="47.43699265">
    <ele>511</ele>
    <time>1970-01-01T00:05:07.000Z</time>
   </trkpt>
   <trkpt lon="11.87557316" lat="47.43519211">
    <ele>517</ele>
    <time>1970-01-01T00:05:08.000Z</time>
   </trkpt>
   <trkpt lon="11.87402821" lat="47.43432236">
    <ele>511</ele>
    <time>1970-01-01T00:05:09.000Z</time>
   </trkpt>
   <trkpt lon="11.87342739" lat="47.43321609">
    <ele>516</ele>
    <time>1970-01-01T00:05:10.000Z</time>
   </trkpt>
   <trkpt lon="11.87445736" lat="47.43257904">
    <ele>518</ele>
    <time>1970-01-01T00:05:11.000Z</time>
   </trkpt>
   <trkpt lon="11.87359905" lat="47.43095398">
    <ele>521</ele>
    <time>1970-01-01T00:05:12.000Z</time>
   </trkpt>
   <trkpt lon="11.87256908" lat="47.42909622">
    <ele>518</ele>
    <time>1970-01-01T00:05:13.000Z</time>
   </trkpt>
   <trkpt lon="11.87136745" lat="47.42758560">
    <ele>523</ele>
    <time>1970-01-01T00:05:14.000Z</time>
   </trkpt>
   <trkpt lon="11.86716175" lat="47.42578506">
    <ele>520</ele>
    <time>1970-01-01T00:05:15.000Z</time>
   </trkpt>
   <trkpt lon="11.86226940" lat="47.42427444">
    <ele>517</ele>
    <time>1970-01-01T00:05:16.000Z</time>
   </trkpt>
   <trkpt lon="11.85772038" lat="47.42160416">
    <ele>524</ele>
    <time>1970-01-01T00:05:17.000Z</time>
   </trkpt>
   <trkpt lon="11.85488796" lat="47.41852570">
    <ele>527</ele>
    <time>1970-01-01T00:05:18.000Z</time>
   </trkpt>
   <trkpt lon="11.85248470" lat="47.41573715">
    <ele>523</ele>
    <time>1970-01-01T00:05:19.000Z</time>
   </trkpt>
   <trkpt lon="11.84536076" lat="47.41062927">
    <ele>527</ele>
    <time>1970-01-01T00:05:20.000Z</time>
   </trkpt>
   <trkpt lon="11.84046841" lat="47.40818787">
    <ele>521</ele>
    <time>1970-01-01T00:05:21.000Z</time>
   </trkpt>
   <trkpt lon="11.83840847" lat="47.40633011">
    <ele>530</ele>
    <time>1970-01-01T00:05:22.000Z</time>
   </trkpt>
   <trkpt lon="11.83737850" lat="47.40394592">
    <ele>522</ele>
    <time>1970-01-01T00:05:23.000Z</time>
   </trkpt>
   <trkpt lon="11.83832264" lat="47.40208817">
    <ele>524</ele>
    <time>1970-01-01T00:05:24.000Z</time>
   </trkpt>
   <trkpt lon="11.83806515" lat="47.40104294">
    <ele>525</ele>
    <time>1970-01-01T00:05:25.000Z</time>
   </trkpt>
   <trkpt lon="11.83883762" lat="47.39778900">
    <ele>524</ele>
    <time>1970-01-01T00:05:26.000Z</time>
   </trkpt>
   <trkpt lon="11.83823681" lat="47.39395523">
    <ele>521</ele>
    <time>1970-01-01T00:05:27.000Z</time>
   </trkpt>
   <trkpt lon="11.83858013" lat="47.39058304">
    <ele>519</ele>
    <time>1970-01-01T00:05:28.000Z</time>
   </trkpt>
   <trkpt lon="11.83858013" lat="47.38739014">
    <ele>522</ele>
    <time>1970-01-01T00:05:29.000Z</time>
   </trkpt>
   <trkpt lon="11.83952427" lat="47.38465881">
    <ele>520</ele>
    <time>1970-01-01T00:05:30.000Z</time>
   </trkpt>
   <trkpt lon="11.84184170" lat="47.38419342">
    <ele>527</ele>
    <time>1970-01-01T00:05:31.000Z</time>
   </trkpt>
   <trkpt lon="11.84347248" lat="47.38419342">
    <ele>528</ele>
    <time>1970-01-01T00:05:32.000Z</time>
   </trkpt>
   <trkpt lon="11.84407330" lat="47.38215637">
    <ele>524</ele>
    <time>1970-01-01T00:05:33.000Z</time>
   </trkpt>
   <trkpt lon="11.84578991" lat="47.38140106">
    <ele>526</ele>
    <time>1970-01-01T00:05:34.000Z</time>
   </trkpt>
   <trkpt lon="11.84724903" lat="47.38122940">
    <ele>523</ele>
    <time>1970-01-01T00:05:35.000Z</time>
   </trkpt>
   <trkpt lon="11.85068226" lat="47.37593842">
    <ele>527</ele>
    <time>1970-01-01T00:05:36.000Z</time>
   </trkpt>
   <trkpt lon="11.85051060" lat="47.37181091">
    <ele>526</ele>
    <time>1970-01-01T00:05:37.000Z</time>
   </trkpt>
   <trkpt lon="11.85162640" lat="47.36768341">
    <ele>526</ele>
    <time>1970-01-01T00:05:38.000Z</time>
   </trkpt>
   <trkpt lon="11.85523129" lat="47.36140823">
    <ele>526</ele>
    <time>1970-01-01T00:05:39.000Z</time>
   </trkpt>
   <trkpt lon="11.85978031" lat="47.35361481">
    <ele>532</ele>
    <time>1970-01-01T00:05:40.000Z</time>
   </trkpt>
   <trkpt lon="11.86467266" lat="47.35390472">
    <ele>529</ele>
    <time>1970-01-01T00:05:41.000Z</time>
   </trkpt>
   <trkpt lon="11.86390018" lat="47.35128784">
    <ele>534</ele>
    <time>1970-01-01T00:05:42.000Z</time>
   </trkpt>
   <trkpt lon="11.86295605" lat="47.34710312">
    <ele>534</ele>
    <time>1970-01-01T00:05:43.000Z</time>
   </trkpt>
   <trkpt lon="11.86192608" lat="47.34442520">
    <ele>534</ele>
    <time>1970-01-01T00:05:44.000Z</time>
   </trkpt>
   <trkpt lon="11.86312771" lat="47.33785629">
    <ele>536</ele>
    <time>1970-01-01T00:05:45.000Z</time>
   </trkpt>
   <trkpt lon="11.86467266" lat="47.33419037">
    <ele>538</ele>
    <time>1970-01-01T00:05:46.000Z</time>
   </trkpt>
   <trkpt lon="11.86613178" lat="47.32947922">
    <ele>541</ele>
    <time>1970-01-01T00:05:47.000Z</time>
   </trkpt>
   <trkpt lon="11.87068081" lat="47.32377625">
    <ele>544</ele>
    <time>1970-01-01T00:05:48.000Z</time>
   </trkpt>
   <trkpt lon="11.87351322" lat="47.31632996">
    <ele>543</ele>
    <time>1970-01-01T00:05:49.000Z</time>
   </trkpt>
   <trkpt lon="11.87548733" lat="47.31272125">
    <ele>547</ele>
    <time>1970-01-01T00:05:50.000Z</time>
   </trkpt>
   <trkpt lon="11.87471485" lat="47.30934525">
    <ele>546</ele>
    <time>1970-01-01T00:05:51.000Z</time>
   </trkpt>
   <trkpt lon="11.87368488" lat="47.30777359">
    <ele>545</ele>
    <time>1970-01-01T00:05:52.000Z</time>
   </trkpt>
   <trkpt lon="11.87437153" lat="47.30498123">
    <ele>546</ele>
    <time>1970-01-01T00:05:53.000Z</time>
   </trkpt>
   <trkpt lon="11.87522984" lat="47.30061722">
    <ele>551</ele>
    <time>1970-01-01T00:05:54.000Z</time>
   </trkpt>
   <trkpt lon="11.87591648" lat="47.29671478">
    <ele>549</ele>
    <time>1970-01-01T00:05:55.000Z</time>
   </trkpt>
   <trkpt lon="11.87548733" lat="47.29397964">
    <ele>551</ele>
    <time>1970-01-01T00:05:56.000Z</time>
   </trkpt>
   <trkpt lon="11.87926388" lat="47.28914642">
    <ele>551</ele>
    <time>1970-01-01T00:05:57.000Z</time>
   </trkpt>
   <trkpt lon="11.88080883" lat="47.28524780">
    <ele>553</ele>
    <time>1970-01-01T00:05:58.000Z</time>
   </trkpt>
   <trkpt lon="11.88321209" lat="47.28245163">
    <ele>553</ele>
    <time>1970-01-01T00:05:59.000Z</time>
   </trkpt>
   <trkpt lon="11.88321209" lat="47.28012466">
    <ele>555</ele>
    <time>1970-01-01T00:06:00.000Z</time>
   </trkpt>
   <trkpt lon="11.88655949" lat="47.27756119">
    <ele>556</ele>
    <time>1970-01-01T00:06:01.000Z</time>
   </trkpt>
   <trkpt lon="11.89128017" lat="47.27458954">
    <ele>558</ele>
    <time>1970-01-01T00:06:02.000Z</time>
   </trkpt>
   <trkpt lon="11.89840412" lat="47.27214432">
    <ele>559</ele>
    <time>1970-01-01T00:06:03.000Z</time>
   </trkpt>
   <trkpt lon="11.89625835" lat="47.27080536">
    <ele>558</ele>
    <time>1970-01-01T00:06:04.000Z</time>
   </trkpt>
   <trkpt lon="11.89788914" lat="47.26847458">
    <ele>561</ele>
    <time>1970-01-01T00:06:05.000Z</time>
   </trkpt>
   <trkpt lon="11.89771748" lat="47.26538849">
    <ele>561</ele>
    <time>1970-01-01T00:06:06.000Z</time>
   </trkpt>
   <trkpt lon="11.89711666" lat="47.26242065">
    <ele>562</ele>
    <time>1970-01-01T00:06:07.000Z</time>
   </trkpt>
   <trkpt lon="11.89643002" lat="47.25985718">
    <ele>562</ele>
    <time>1970-01-01T00:06:08.000Z</time>
   </trkpt>
   <trkpt lon="11.89574337" lat="47.25583649">
    <ele>561</ele>
    <time>1970-01-01T00:06:09.000Z</time>
   </trkpt>
   <trkpt lon="11.89565754" lat="47.25228119">
    <ele>562</ele>
    <time>1970-01-01T00:06:10.000Z</time>
   </trkpt>
   <trkpt lon="11.89600086" lat="47.24808884">
    <ele>572</ele>
    <time>1970-01-01T00:06:11.000Z</time>
   </trkpt>
   <trkpt lon="11.89608669" lat="47.24523163">
    <ele>569</ele>
    <time>1970-01-01T00:06:12.000Z</time>
   </trkpt>
   <trkpt lon="11.89428425" lat="47.24330902">
    <ele>566</ele>
    <time>1970-01-01T00:06:13.000Z</time>
   </trkpt>
   <trkpt lon="11.89205265" lat="47.24132919">
    <ele>581</ele>
    <time>1970-01-01T00:06:14.000Z</time>
   </trkpt>
   <trkpt lon="11.89128017" lat="47.24016190">
    <ele>568</ele>
    <time>1970-01-01T00:06:15.000Z</time>
   </trkpt>
   <trkpt lon="11.88784695" lat="47.23847198">
    <ele>571</ele>
    <time>1970-01-01T00:06:16.000Z</time>
   </trkpt>
   <trkpt lon="11.88321209" lat="47.23590851">
    <ele>571</ele>
    <time>1970-01-01T00:06:17.000Z</time>
   </trkpt>
   <trkpt lon="11.88003635" lat="47.23433685">
    <ele>575</ele>
    <time>1970-01-01T00:06:18.000Z</time>
   </trkpt>
   <trkpt lon="11.87806225" lat="47.23299408">
    <ele>574</ele>
    <time>1970-01-01T00:06:19.000Z</time>
   </trkpt>
   <trkpt lon="11.87728977" lat="47.23089600">
    <ele>576</ele>
    <time>1970-01-01T00:06:20.000Z</time>
   </trkpt>
   <trkpt lon="11.87737560" lat="47.22874069">
    <ele>577</ele>
    <time>1970-01-01T00:06:21.000Z</time>
   </trkpt>
   <trkpt lon="11.87643147" lat="47.22617722">
    <ele>580</ele>
    <time>1970-01-01T00:06:22.000Z</time>
   </trkpt>
   <trkpt lon="11.87531567" lat="47.22431183">
    <ele>576</ele>
    <time>1970-01-01T00:06:23.000Z</time>
   </trkpt>
   <trkpt lon="11.87385654" lat="47.22267914">
    <ele>579</ele>
    <time>1970-01-01T00:06:24.000Z</time>
   </trkpt>
   <trkpt lon="11.87042332" lat="47.21982193">
    <ele>582</ele>
    <time>1970-01-01T00:06:25.000Z</time>
   </trkpt>
   <trkpt lon="11.86973667" lat="47.21754837">
    <ele>582</ele>
    <time>1970-01-01T00:06:26.000Z</time>
   </trkpt>
   <trkpt lon="11.87007999" lat="47.21504211">
    <ele>584</ele>
    <time>1970-01-01T00:06:27.000Z</time>
   </trkpt>
   <trkpt lon="11.87033749" lat="47.21265030">
    <ele>586</ele>
    <time>1970-01-01T00:06:28.000Z</time>
   </trkpt>
   <trkpt lon="11.86956501" lat="47.20956039">
    <ele>587</ele>
    <time>1970-01-01T00:06:29.000Z</time>
   </trkpt>
   <trkpt lon="11.86905003" lat="47.20746231">
    <ele>584</ele>
    <time>1970-01-01T00:06:30.000Z</time>
   </trkpt>
   <trkpt lon="11.86939335" lat="47.20635605">
    <ele>587</ele>
    <time>1970-01-01T00:06:31.000Z</time>
   </trkpt>
   <trkpt lon="11.86896420" lat="47.20373154">
    <ele>591</ele>
    <time>1970-01-01T00:06:32.000Z</time>
   </trkpt>
   <trkpt lon="11.86956501" lat="47.20162964">
    <ele>590</ele>
    <time>1970-01-01T00:06:33.000Z</time>
   </trkpt>
   <trkpt lon="11.86999416" lat="47.20011520">
    <ele>590</ele>
    <time>1970-01-01T00:06:34.000Z</time>
   </trkpt>
   <trkpt lon="11.87050915" lat="47.19935608">
    <ele>590</ele>
    <time>1970-01-01T00:06:35.000Z</time>
   </trkpt>
   <trkpt lon="11.87042332" lat="47.19749069">
    <ele>592</ele>
    <time>1970-01-01T00:06:36.000Z</time>
   </trkpt>
   <trkpt lon="11.87033749" lat="47.19603348">
    <ele>590</ele>
    <time>1970-01-01T00:06:37.000Z</time>
   </trkpt>
   <trkpt lon="11.86922169" lat="47.19410706">
    <ele>592</ele>
    <time>1970-01-01T00:06:38.000Z</time>
   </trkpt>
   <trkpt lon="11.86853504" lat="47.19293976">
    <ele>596</ele>
    <time>1970-01-01T00:06:39.000Z</time>
   </trkpt>
   <trkpt lon="11.86690426" lat="47.19148254">
    <ele>596</ele>
    <time>1970-01-01T00:06:40.000Z</time>
   </trkpt>
   <trkpt lon="11.86621761" lat="47.19055176">
    <ele>599</ele>
    <time>1970-01-01T00:06:41.000Z</time>
   </trkpt>
   <trkpt lon="11.86596012" lat="47.18885803">
    <ele>596</ele>
    <time>1970-01-01T00:06:42.000Z</time>
   </trkpt>
   <trkpt lon="11.86518764" lat="47.18635178">
    <ele>599</ele>
    <time>1970-01-01T00:06:43.000Z</time>
   </trkpt>
   <trkpt lon="11.86510181" lat="47.18460083">
    <ele>600</ele>
    <time>1970-01-01T00:06:44.000Z</time>
   </trkpt>
   <trkpt lon="11.86535931" lat="47.18255997">
    <ele>603</ele>
    <time>1970-01-01T00:06:45.000Z</time>
   </trkpt>
   <trkpt lon="11.86484432" lat="47.18051529">
    <ele>608</ele>
    <time>1970-01-01T00:06:46.000Z</time>
   </trkpt>
   <trkpt lon="11.86364269" lat="47.17760086">
    <ele>610</ele>
    <time>1970-01-01T00:06:47.000Z</time>
   </trkpt>
   <trkpt lon="11.86261272" lat="47.17526627">
    <ele>614</ele>
    <time>1970-01-01T00:06:48.000Z</time>
   </trkpt>
   <trkpt lon="11.86226940" lat="47.17374802">
    <ele>627</ele>
    <time>1970-01-01T00:06:49.000Z</time>
   </trkpt>
   <trkpt lon="11.86287022" lat="47.17281723">
    <ele>627</ele>
    <time>1970-01-01T00:06:50.000Z</time>
   </trkpt>
   <trkpt lon="11.86372852" lat="47.17240906">
    <ele>625</ele>
    <time>1970-01-01T00:06:51.000Z</time>
   </trkpt>
   <trkpt lon="11.86287022" lat="47.17053986">
    <ele>625</ele>
    <time>1970-01-01T00:06:52.000Z</time>
   </trkpt>
  </trkseg>
 </trk>
 <extensions/>
</gpx>
